createdAt,value
2017-11-25T00:00:19.404Z,17.62
2017-11-25T00:02:45.632Z,15.15
2017-11-25T00:05:11.842Z,14.63
2017-11-25T00:07:38.105Z,16.52
2017-11-25T00:10:04.401Z,16.23
2017-11-25T00:12:30.688Z,15.68
2017-11-25T00:14:57.295Z,15.93
2017-11-25T00:17:23.538Z,15.27
2017-11-25T00:19:49.773Z,14.63
2017-11-25T00:22:15.997Z,15.75
2017-11-25T00:24:42.246Z,15.80
2017-11-25T00:27:08.839Z,15.32
2017-11-25T00:29:35.096Z,14.85
2017-11-25T00:32:01.312Z,15.95
2017-11-25T00:34:27.544Z,17.15
2017-11-25T00:36:53.811Z,15.45
2017-11-25T00:39:20.017Z,16.08
2017-11-25T00:41:46.611Z,15.40
2017-11-25T00:44:12.832Z,17.40
2017-11-25T00:46:39.049Z,15.90
2017-11-25T00:49:05.270Z,15.05
2017-11-25T00:51:31.488Z,13.30
2017-11-25T00:53:57.750Z,14.20
2017-11-25T00:56:23.975Z,15.63
2017-11-25T00:58:50.231Z,14.25
2017-11-25T01:01:16.459Z,16.05
2017-11-25T01:03:42.695Z,15.43
2017-11-25T01:06:08.914Z,15.10
2017-11-25T01:08:35.133Z,18.45
2017-11-25T01:11:01.337Z,15.57
2017-11-25T01:13:27.558Z,15.20
2017-11-25T01:15:53.789Z,12.90
2017-11-25T01:18:20.014Z,16.00
2017-11-25T01:20:46.242Z,15.40
2017-11-25T01:23:12.461Z,14.02
2017-11-25T01:25:38.684Z,13.75
2017-11-25T01:28:04.894Z,13.50
2017-11-25T01:30:31.097Z,14.10
2017-11-25T01:32:57.317Z,15.02
2017-11-25T01:35:23.559Z,15.07
2017-11-25T01:37:49.756Z,14.65
2017-11-25T01:40:16.074Z,14.87
2017-11-25T01:42:42.324Z,15.90
2017-11-25T01:45:08.586Z,15.77
2017-11-25T01:47:35.173Z,14.57
2017-11-25T01:50:01.408Z,12.40
2017-11-25T01:52:27.619Z,13.20
2017-11-25T01:54:53.898Z,12.82
2017-11-25T01:57:20.525Z,14.02
2017-11-25T01:59:46.758Z,14.23
2017-11-25T02:02:12.963Z,15.38
2017-11-25T02:04:39.199Z,16.27
2017-11-25T02:07:05.487Z,15.40
2017-11-25T02:09:31.761Z,14.90
2017-11-25T02:11:57.985Z,15.50
2017-11-25T02:14:24.253Z,15.98
2017-11-25T02:16:50.878Z,16.60
2017-11-25T02:19:17.156Z,12.95
2017-11-25T02:21:43.423Z,14.68
2017-11-25T02:24:09.686Z,14.20
2017-11-25T02:26:35.929Z,12.85
2017-11-25T02:29:02.508Z,12.50
2017-11-25T02:31:28.762Z,12.27
2017-11-25T02:33:55.376Z,11.95
2017-11-25T02:36:21.641Z,14.55
2017-11-25T02:38:47.888Z,12.02
2017-11-25T02:41:14.132Z,11.02
2017-11-25T02:43:40.407Z,11.07
2017-11-25T02:46:06.633Z,12.20
2017-11-25T02:48:32.903Z,12.32
2017-11-25T02:50:59.156Z,12.23
2017-11-25T02:53:25.390Z,12.50
2017-11-25T02:55:51.634Z,12.25
2017-11-25T02:58:17.908Z,12.35
2017-11-25T03:00:44.164Z,11.82
2017-11-25T03:03:10.438Z,12.48
2017-11-25T03:05:37.096Z,13.77
2017-11-25T03:08:03.370Z,12.45
2017-11-25T03:10:29.621Z,13.73
2017-11-25T03:12:55.905Z,13.45
2017-11-25T03:15:22.180Z,12.27
2017-11-25T03:17:48.417Z,13.40
2017-11-25T03:20:15.040Z,12.20
2017-11-25T03:22:41.269Z,14.48
2017-11-25T03:25:07.564Z,11.88
2017-11-25T03:27:33.813Z,13.10
2017-11-25T03:30:00.052Z,13.18
2017-11-25T03:32:26.252Z,12.25
2017-11-25T03:34:52.481Z,13.05
2017-11-25T03:37:18.705Z,12.45
2017-11-25T03:39:44.966Z,12.50
2017-11-25T03:42:11.203Z,12.57
2017-11-25T03:44:37.414Z,12.13
2017-11-25T03:47:03.633Z,12.10
2017-11-25T03:49:29.870Z,12.23
2017-11-25T03:51:56.152Z,13.07
2017-11-25T03:54:22.401Z,12.00
2017-11-25T03:56:48.650Z,11.18
2017-11-25T03:59:14.933Z,12.40
2017-11-25T04:01:41.158Z,12.77
2017-11-25T04:04:07.352Z,11.70
2017-11-25T04:06:33.577Z,12.50
2017-11-25T04:08:59.815Z,12.65
2017-11-25T04:11:26.056Z,10.90
2017-11-25T04:13:52.639Z,12.48
2017-11-25T04:16:18.863Z,12.05
2017-11-25T04:18:45.120Z,13.32
2017-11-25T04:21:11.417Z,13.07
2017-11-25T04:23:37.647Z,12.13
2017-11-25T04:26:03.876Z,12.02
2017-11-25T04:28:30.096Z,12.88
2017-11-25T04:30:56.336Z,13.60
2017-11-25T04:33:22.565Z,12.85
2017-11-25T04:35:48.789Z,12.93
2017-11-25T04:38:14.988Z,12.63
2017-11-25T04:40:41.212Z,13.10
2017-11-25T04:43:07.409Z,13.20
2017-11-25T04:45:33.610Z,10.95
2017-11-25T04:47:59.861Z,13.00
2017-11-25T04:50:26.094Z,11.95
2017-11-25T04:52:52.335Z,12.30
2017-11-25T04:55:18.940Z,11.85
2017-11-25T04:57:45.264Z,13.05
2017-11-25T05:00:11.533Z,12.35
2017-11-25T05:02:37.827Z,12.00
2017-11-25T05:05:04.093Z,12.48
2017-11-25T05:07:30.734Z,13.55
2017-11-25T05:09:56.976Z,12.60
2017-11-25T05:12:23.235Z,12.10
2017-11-25T05:14:49.507Z,12.05
2017-11-25T05:17:16.188Z,10.95
2017-11-25T05:19:42.435Z,12.55
2017-11-25T05:22:08.649Z,12.80
2017-11-25T05:24:34.901Z,12.32
2017-11-25T05:27:01.164Z,14.15
2017-11-25T05:29:27.788Z,12.77
2017-11-25T05:31:54.049Z,13.18
2017-11-25T05:34:20.329Z,12.73
2017-11-25T05:36:46.558Z,13.25
2017-11-25T05:39:12.808Z,14.48
2017-11-25T05:41:39.078Z,14.27
2017-11-25T05:44:05.348Z,14.02
2017-11-25T05:46:31.541Z,13.07
2017-11-25T05:48:57.782Z,12.00
2017-11-25T05:51:24.040Z,12.37
2017-11-25T05:53:50.291Z,12.82
2017-11-25T05:56:16.852Z,12.30
2017-11-25T05:58:43.072Z,12.02
2017-11-25T06:01:09.337Z,12.35
2017-11-25T06:03:35.542Z,13.70
2017-11-25T06:06:01.787Z,12.30
2017-11-25T06:08:28.047Z,15.02
2017-11-25T06:10:54.237Z,12.90
2017-11-25T06:13:20.439Z,13.40
2017-11-25T06:15:46.661Z,12.35
2017-11-25T06:18:12.877Z,13.52
2017-11-25T06:20:39.108Z,12.50
2017-11-25T06:23:05.357Z,12.02
2017-11-25T06:25:31.599Z,12.68
2017-11-25T06:27:57.855Z,12.75
2017-11-25T06:30:24.094Z,14.32
2017-11-25T06:32:50.332Z,13.60
2017-11-25T06:35:16.572Z,15.50
2017-11-25T06:37:43.176Z,15.73
2017-11-25T06:40:09.406Z,16.58
2017-11-25T06:42:35.609Z,16.00
2017-11-25T06:45:01.818Z,15.68
2017-11-25T06:47:28.070Z,17.73
2017-11-25T06:49:54.280Z,16.60
2017-11-25T06:52:20.482Z,19.77
2017-11-25T06:54:46.712Z,19.00
2017-11-25T06:57:12.952Z,16.58
2017-11-25T06:59:39.169Z,17.80
2017-11-25T07:02:05.762Z,16.08
2017-11-25T07:04:32.008Z,17.33
2017-11-25T07:06:58.210Z,6.50
2017-11-25T07:09:24.412Z,4.00
2017-11-25T07:11:50.652Z,3.55
2017-11-25T07:14:16.918Z,2.83
2017-11-25T07:16:43.167Z,3.28
2017-11-25T07:19:09.409Z,1.15
2017-11-25T07:21:35.654Z,0.82
2017-11-25T07:24:01.896Z,1.30
2017-11-25T07:26:28.127Z,2.20
2017-11-25T07:28:54.423Z,1.15
2017-11-25T07:31:20.639Z,1.60
2017-11-25T07:33:47.217Z,0.98
2017-11-25T07:36:13.451Z,1.45
2017-11-25T07:38:39.674Z,2.35
2017-11-25T07:41:05.965Z,3.25
2017-11-25T07:43:32.609Z,2.25
2017-11-25T07:45:58.879Z,1.27
2017-11-25T07:48:25.170Z,0.90
2017-11-25T07:50:51.446Z,0.82
2017-11-25T07:53:17.667Z,1.77
2017-11-25T07:55:43.937Z,1.20
2017-11-25T07:58:10.555Z,0.93
2017-11-25T08:00:36.787Z,2.67
2017-11-25T08:03:03.005Z,3.05
2017-11-25T08:05:29.238Z,2.20
2017-11-25T08:07:55.494Z,0.90
2017-11-25T08:10:22.151Z,1.30
2017-11-25T08:12:48.375Z,1.12
2017-11-25T08:15:14.619Z,1.77
2017-11-25T08:17:40.866Z,1.62
2017-11-25T08:20:07.113Z,1.15
2017-11-25T08:22:33.753Z,1.00
2017-11-25T08:25:00.048Z,3.35
2017-11-25T08:27:26.264Z,0.70
2017-11-25T08:29:52.514Z,0.60
2017-11-25T08:32:18.756Z,1.80
2017-11-25T08:34:45.004Z,1.02
2017-11-25T08:37:11.247Z,1.10
2017-11-25T08:39:37.824Z,0.70
2017-11-25T08:42:04.487Z,1.17
2017-11-25T08:44:30.741Z,0.40
2017-11-25T08:46:57.329Z,0.50
2017-11-25T08:49:23.561Z,1.12
2017-11-25T08:51:49.850Z,3.95
2017-11-25T08:54:16.082Z,1.80
2017-11-25T08:56:43.715Z,1.20
2017-11-25T08:59:09.968Z,1.58
2017-11-25T09:01:36.550Z,0.68
2017-11-25T09:04:02.768Z,0.40
2017-11-25T09:06:28.995Z,1.37
2017-11-25T09:08:55.212Z,0.40
2017-11-25T09:11:21.456Z,0.50
2017-11-25T09:13:47.722Z,0.68
2017-11-25T09:16:13.951Z,2.58
2017-11-25T09:18:40.182Z,1.17
2017-11-25T09:21:06.836Z,1.15
2017-11-25T09:23:33.441Z,0.80
2017-11-25T09:25:59.682Z,0.68
2017-11-25T09:28:25.951Z,1.65
2017-11-25T09:30:52.243Z,0.95
2017-11-25T09:33:18.865Z,0.80
2017-11-25T09:35:45.136Z,2.97
2017-11-25T09:38:11.366Z,0.82
2017-11-25T09:40:37.663Z,1.35
2017-11-25T09:43:04.052Z,0.80
2017-11-25T09:45:30.372Z,0.70
2017-11-25T09:47:56.647Z,1.00
2017-11-25T09:50:22.912Z,0.60
2017-11-25T09:52:49.202Z,1.00
2017-11-25T09:55:15.465Z,0.40
2017-11-25T09:57:41.741Z,0.52
2017-11-25T10:00:08.015Z,0.85
2017-11-25T10:02:34.629Z,1.80
2017-11-25T10:05:00.835Z,0.77
2017-11-25T10:07:27.100Z,0.55
2017-11-25T10:09:53.747Z,1.15
2017-11-25T10:12:20.372Z,0.68
2017-11-25T10:14:46.975Z,1.50
2017-11-25T10:17:13.228Z,0.50
2017-11-25T10:19:39.442Z,1.95
2017-11-25T10:22:05.667Z,0.60
2017-11-25T10:24:31.864Z,0.70
2017-11-25T10:26:58.123Z,3.33
2017-11-25T10:29:24.355Z,1.48
2017-11-25T10:31:50.586Z,0.70
2017-11-25T10:34:16.802Z,1.10
2017-11-25T10:36:43.093Z,1.05
2017-11-25T10:39:09.314Z,0.88
2017-11-25T10:41:35.587Z,1.08
2017-11-25T10:44:01.815Z,0.65
2017-11-25T10:46:28.076Z,0.98
2017-11-25T10:48:54.686Z,2.65
2017-11-25T10:51:20.910Z,1.98
2017-11-25T10:53:47.132Z,2.67
2017-11-25T10:56:13.336Z,1.25
2017-11-25T10:58:39.628Z,1.55
2017-11-25T11:01:06.276Z,1.30
2017-11-25T11:03:32.572Z,1.75
2017-11-25T11:05:58.830Z,0.95
2017-11-25T11:08:25.485Z,0.60
2017-11-25T11:10:52.197Z,1.80
2017-11-25T11:13:18.889Z,1.10
2017-11-25T11:15:45.160Z,0.88
2017-11-25T11:18:11.455Z,0.90
2017-11-25T11:20:37.701Z,1.10
2017-11-25T11:23:03.947Z,0.70
2017-11-25T11:25:30.205Z,0.70
2017-11-25T11:27:56.429Z,1.40
2017-11-25T11:30:22.656Z,1.45
2017-11-25T11:32:48.922Z,1.60
2017-11-25T11:35:15.158Z,2.20
2017-11-25T11:37:41.372Z,1.35
2017-11-25T11:40:07.662Z,1.40
2017-11-25T11:42:34.315Z,1.90
2017-11-25T11:45:00.580Z,2.00
2017-11-25T11:47:26.806Z,1.40
2017-11-25T11:49:53.050Z,3.40
2017-11-25T11:52:19.284Z,1.52
2017-11-25T11:54:45.558Z,1.40
2017-11-25T11:57:11.862Z,1.23
2017-11-25T11:59:38.470Z,0.88
2017-11-25T12:02:04.753Z,2.03
2017-11-25T12:04:31.026Z,2.40
2017-11-25T12:06:57.273Z,3.35
2017-11-25T12:09:23.505Z,3.20
2017-11-25T12:11:49.780Z,2.08
2017-11-25T12:14:16.037Z,1.70
2017-11-25T12:16:42.288Z,1.92
2017-11-25T12:19:08.502Z,1.80
2017-11-25T12:21:34.818Z,1.98
2017-11-25T12:24:01.064Z,2.60
2017-11-25T12:26:27.275Z,1.40
2017-11-25T12:28:53.552Z,1.50
2017-11-25T12:31:19.749Z,1.40
2017-11-25T12:33:46.028Z,1.85
2017-11-25T12:36:12.318Z,3.47
2017-11-25T12:38:38.646Z,3.30
2017-11-25T12:41:04.935Z,3.20
2017-11-25T12:43:31.263Z,3.08
2017-11-25T12:45:57.515Z,2.22
2017-11-25T12:48:23.756Z,1.45
2017-11-25T12:50:50.223Z,2.50
2017-11-25T12:53:16.506Z,1.77
2017-11-25T12:55:42.736Z,1.65
2017-11-25T12:58:09.014Z,1.73
2017-11-25T13:00:35.235Z,1.92
2017-11-25T13:03:01.851Z,2.62
2017-11-25T13:05:28.097Z,1.80
2017-11-25T13:07:54.736Z,2.75
2017-11-25T13:10:20.994Z,1.70
2017-11-25T13:12:47.253Z,3.17
2017-11-25T13:15:13.457Z,1.17
2017-11-25T13:17:39.684Z,1.05
2017-11-25T13:20:05.937Z,1.65
2017-11-25T13:22:33.004Z,1.23
2017-11-25T13:24:59.217Z,1.55
2017-11-25T13:27:25.440Z,1.75
2017-11-25T13:29:51.684Z,1.52
2017-11-25T13:32:17.937Z,2.15
2017-11-25T13:34:44.239Z,2.55
2017-11-25T13:37:10.458Z,2.45
2017-11-25T13:39:36.717Z,2.28
2017-11-25T13:42:03.402Z,2.62
2017-11-25T13:44:29.698Z,2.80
2017-11-25T13:46:55.983Z,2.00
2017-11-25T13:49:22.295Z,1.98
2017-11-25T13:51:48.538Z,3.47
2017-11-25T13:54:14.826Z,2.60
2017-11-25T13:56:41.093Z,5.07
2017-11-25T13:59:07.410Z,2.10
2017-11-25T14:01:33.628Z,2.22
2017-11-25T14:03:59.895Z,2.58
2017-11-25T14:06:26.198Z,1.85
2017-11-25T14:08:52.468Z,1.85
2017-11-25T14:11:19.127Z,6.05
2017-11-25T14:13:45.408Z,1.90
2017-11-25T14:16:11.703Z,1.98
2017-11-25T14:18:37.978Z,2.42
2017-11-25T14:21:04.262Z,1.60
2017-11-25T14:23:30.521Z,1.50
2017-11-25T14:25:56.771Z,2.60
2017-11-25T14:28:23.014Z,0.93
2017-11-25T14:30:49.764Z,2.40
2017-11-25T14:33:16.403Z,1.10
2017-11-25T14:35:42.675Z,2.12
2017-11-25T14:38:08.986Z,1.87
2017-11-25T14:40:35.237Z,1.75
2017-11-25T14:43:01.502Z,1.70
2017-11-25T14:45:27.783Z,1.42
2017-11-25T14:47:54.072Z,1.40
2017-11-25T14:50:20.335Z,1.62
2017-11-25T14:52:46.877Z,1.55
2017-11-25T14:55:13.125Z,1.98
2017-11-25T14:57:39.414Z,1.48
2017-11-25T15:00:05.658Z,2.22
2017-11-25T15:02:31.907Z,2.00
2017-11-25T15:04:58.187Z,1.58
2017-11-25T15:07:24.763Z,2.22
2017-11-25T15:09:51.099Z,2.30
2017-11-25T15:12:17.321Z,2.03
2017-11-25T15:14:43.703Z,2.37
2017-11-25T15:17:10.367Z,1.85
2017-11-25T15:19:36.660Z,1.70
2017-11-25T15:22:02.956Z,1.92
2017-11-25T15:24:29.251Z,2.33
2017-11-25T15:26:55.525Z,4.47
2017-11-25T15:29:21.837Z,2.85
2017-11-25T15:31:48.080Z,2.85
2017-11-25T15:34:14.321Z,2.00
2017-11-25T15:36:40.861Z,1.75
2017-11-25T15:39:07.135Z,20.10
2017-11-25T15:41:33.387Z,3.28
2017-11-25T15:43:59.927Z,2.95
2017-11-25T15:46:26.200Z,3.50
2017-11-25T15:48:52.477Z,2.45
2017-11-25T15:51:18.758Z,3.12
2017-11-25T15:53:45.687Z,4.12
2017-11-25T15:56:12.030Z,3.95
2017-11-25T15:58:38.728Z,2.80
2017-11-25T16:01:05.060Z,3.42
2017-11-25T16:03:31.383Z,5.95
2017-11-25T16:05:57.687Z,5.25
2017-11-25T16:08:23.957Z,4.72
2017-11-25T16:10:50.236Z,4.25
2017-11-25T16:13:16.519Z,5.45
2017-11-25T16:15:42.837Z,3.85
2017-11-25T16:18:09.066Z,4.07
2017-11-25T16:20:35.347Z,4.65
2017-11-25T16:23:01.969Z,4.05
2017-11-25T16:25:28.656Z,6.47
2017-11-25T16:27:54.955Z,6.12
2017-11-25T16:30:21.252Z,4.75
2017-11-25T16:32:47.514Z,4.50
2017-11-25T16:35:13.802Z,4.32
2017-11-25T16:37:40.133Z,4.87
2017-11-25T16:40:06.520Z,4.65
2017-11-25T16:42:32.792Z,4.25
2017-11-25T16:44:59.103Z,3.97
2017-11-25T16:47:25.671Z,4.70
2017-11-25T16:49:51.950Z,4.60
2017-11-25T16:52:18.219Z,4.60
2017-11-25T16:54:44.482Z,4.10
2017-11-25T16:57:11.116Z,4.25
2017-11-25T16:59:37.383Z,4.53
2017-11-25T17:02:03.660Z,3.87
2017-11-25T17:04:29.896Z,4.15
2017-11-25T17:06:56.991Z,4.15
2017-11-25T17:09:23.249Z,5.18
2017-11-25T17:11:49.542Z,4.85
2017-11-25T17:14:15.796Z,4.82
2017-11-25T17:16:42.063Z,7.55
2017-11-25T17:19:08.695Z,8.85
2017-11-25T17:21:35.381Z,2.58
2017-11-25T17:24:01.734Z,1.50
2017-11-25T17:26:28.085Z,1.25
2017-11-25T17:28:54.717Z,2.70
2017-11-25T17:31:21.252Z,1.30
2017-11-25T17:33:47.509Z,1.60
2017-11-25T17:36:14.118Z,1.80
2017-11-25T17:38:40.400Z,1.48
2017-11-25T17:41:06.647Z,1.60
2017-11-25T17:43:32.924Z,1.98
2017-11-25T17:45:59.193Z,2.45
2017-11-25T17:48:25.424Z,2.55
2017-11-25T17:50:52.099Z,2.03
2017-11-25T17:53:18.337Z,4.10
2017-11-25T17:55:44.563Z,2.03
2017-11-25T17:58:10.842Z,2.35
2017-11-25T18:00:37.072Z,2.03
2017-11-25T18:03:03.306Z,2.60
2017-11-25T18:05:29.557Z,1.50
2017-11-25T18:07:55.820Z,2.95
2017-11-25T18:10:22.049Z,2.58
2017-11-25T18:12:48.313Z,1.85
2017-11-25T18:15:14.590Z,1.60
2017-11-25T18:17:40.814Z,1.10
2017-11-25T18:20:07.070Z,1.48
2017-11-25T18:22:33.652Z,1.62
2017-11-25T18:24:59.912Z,1.35
2017-11-25T18:27:26.193Z,1.85
2017-11-25T18:29:52.519Z,1.50
2017-11-25T18:32:18.824Z,1.10
2017-11-25T18:34:46.043Z,2.10
2017-11-25T18:37:12.419Z,1.33
2017-11-25T18:39:38.753Z,1.25
2017-11-25T18:42:04.999Z,2.45
2017-11-25T18:44:31.256Z,2.00
2017-11-25T18:46:57.515Z,2.20
2017-11-25T18:49:23.814Z,2.67
2017-11-25T18:51:50.083Z,1.55
2017-11-25T18:54:16.343Z,3.22
2017-11-25T18:56:42.576Z,6.70
2017-11-25T18:59:08.873Z,3.58
2017-11-25T19:01:35.490Z,2.00
2017-11-25T19:04:01.739Z,1.80
2017-11-25T19:06:28.015Z,2.00
2017-11-25T19:08:54.318Z,1.65
2017-11-25T19:11:20.602Z,2.03
2017-11-25T19:13:46.895Z,2.53
2017-11-25T19:16:13.153Z,3.70
2017-11-25T19:18:39.448Z,2.70
2017-11-25T19:21:05.695Z,4.78
2017-11-25T19:23:32.001Z,2.75
2017-11-25T19:25:58.227Z,3.95
2017-11-25T19:28:24.457Z,2.20
2017-11-25T19:30:50.755Z,3.72
2017-11-25T19:33:17.414Z,2.42
2017-11-25T19:35:43.673Z,3.08
2017-11-25T19:38:09.924Z,4.60
2017-11-25T19:40:36.180Z,3.08
2017-11-25T19:43:02.445Z,2.85
2017-11-25T19:45:28.675Z,3.78
2017-11-25T19:47:54.945Z,6.28
2017-11-25T19:50:21.228Z,8.48
2017-11-25T19:52:47.480Z,4.43
2017-11-25T19:55:13.704Z,1.95
2017-11-25T19:57:40.018Z,1.65
2017-11-25T20:00:06.275Z,4.53
2017-11-25T20:02:32.495Z,3.25
2017-11-25T20:04:58.773Z,2.55
2017-11-25T20:07:25.016Z,2.85
2017-11-25T20:09:51.273Z,3.22
2017-11-25T20:12:17.521Z,1.85
2017-11-25T20:14:43.778Z,1.50
2017-11-25T20:17:10.039Z,2.83
2017-11-25T20:19:36.337Z,1.45
2017-11-25T20:22:02.937Z,2.58
2017-11-25T20:24:29.227Z,2.37
2017-11-25T20:26:55.506Z,2.60
2017-11-25T20:29:21.749Z,4.60
2017-11-25T20:31:48.401Z,3.58
2017-11-25T20:34:14.682Z,6.95
2017-11-25T20:36:40.963Z,4.10
2017-11-25T20:39:07.220Z,4.62
2017-11-25T20:41:33.483Z,5.53
2017-11-25T20:43:59.758Z,5.68
2017-11-25T20:46:25.999Z,5.25
2017-11-25T20:48:52.250Z,6.93
2017-11-25T20:51:18.521Z,7.55
2017-11-25T20:53:45.173Z,8.27
2017-11-25T20:56:11.490Z,7.85
2017-11-25T20:58:38.237Z,8.00
2017-11-25T21:01:04.833Z,10.05
2017-11-25T21:03:31.069Z,7.50
2017-11-25T21:05:57.357Z,8.27
2017-11-25T21:08:23.608Z,8.45
2017-11-25T21:10:49.879Z,8.05
2017-11-25T21:13:16.551Z,8.82
2017-11-25T21:15:42.782Z,8.05
2017-11-25T21:18:09.041Z,9.88
2017-11-25T21:20:35.318Z,9.15
2017-11-25T21:23:01.583Z,11.07
2017-11-25T21:25:27.918Z,10.77
2017-11-25T21:27:54.163Z,9.23
2017-11-25T21:30:20.492Z,9.60
2017-11-25T21:32:46.735Z,10.25
2017-11-25T21:35:12.992Z,10.10
2017-11-25T21:37:39.241Z,10.20
2017-11-25T21:40:05.968Z,10.85
2017-11-25T21:42:32.221Z,9.48
2017-11-25T21:44:58.473Z,8.52
2017-11-25T21:47:24.775Z,8.70
2017-11-25T21:49:51.047Z,7.57
2017-11-25T21:52:17.272Z,7.53
2017-11-25T21:54:43.560Z,7.43
2017-11-25T21:57:09.813Z,6.72
2017-11-25T21:59:36.087Z,7.45
2017-11-25T22:02:02.406Z,9.15
2017-11-25T22:04:29.049Z,8.82
2017-11-25T22:06:55.697Z,8.00
2017-11-25T22:09:21.929Z,7.55
2017-11-25T22:11:48.182Z,8.43
2017-11-25T22:14:14.478Z,7.10
2017-11-25T22:16:40.727Z,7.95
2017-11-25T22:19:06.983Z,6.95
2017-11-25T22:21:33.244Z,7.00
2017-11-25T22:23:59.854Z,7.95
2017-11-25T22:26:26.116Z,6.15
2017-11-25T22:28:52.745Z,5.55
2017-11-25T22:31:18.960Z,6.75
2017-11-25T22:33:45.220Z,5.68
2017-11-25T22:36:11.831Z,6.50
2017-11-25T22:38:38.062Z,6.07
2017-11-25T22:41:04.340Z,6.03
2017-11-25T22:43:30.570Z,6.53
2017-11-25T22:45:56.905Z,6.75
2017-11-25T22:48:23.161Z,6.18
2017-11-25T22:50:49.405Z,6.68
2017-11-25T22:53:15.673Z,6.47
2017-11-25T22:55:41.929Z,8.02
2017-11-25T22:58:08.170Z,6.40
2017-11-25T23:00:34.430Z,6.78
2017-11-25T23:03:00.701Z,7.05
2017-11-25T23:05:26.972Z,8.20
2017-11-25T23:07:53.236Z,9.10
2017-11-25T23:10:19.872Z,8.68
2017-11-25T23:12:46.524Z,8.88
2017-11-25T23:15:12.779Z,7.80
2017-11-25T23:17:39.020Z,9.40
2017-11-25T23:20:05.281Z,8.20
2017-11-25T23:22:31.613Z,7.85
2017-11-25T23:24:58.240Z,7.80
2017-11-25T23:27:24.487Z,10.15
2017-11-25T23:29:51.086Z,12.23
2017-11-25T23:32:17.325Z,11.57
2017-11-25T23:34:43.549Z,10.60
2017-11-25T23:37:09.787Z,12.30
2017-11-25T23:39:35.998Z,10.50
2017-11-25T23:42:02.203Z,9.63
2017-11-25T23:44:28.449Z,10.50
2017-11-25T23:46:54.666Z,9.35
2017-11-25T23:49:20.919Z,11.05
2017-11-25T23:51:47.168Z,10.32
2017-11-25T23:54:13.775Z,15.07
2017-11-25T23:56:40.001Z,11.73
2017-11-25T23:59:06.261Z,11.52
